Maersk Iowa — KABL — position and weather

sailwx.info

Track history (hours):
 
Tides and Currents Weather Stations Pressure Air Temp Water Temp Dewpoint Dewpoint Depression Visibility Wind Speed Wind Dir Waves Ship Positions

Maersk Iowa

Owner: Maersk Line, Limited, Norfolk, VA. More information available from US FCC via Universal Licensing System and Coast Guard Vessel Documentation Center.

Last reported at 2018-Apr-21 18:00 UTC. Time now 2018-Apr-21 21:01 UTC.
Position N 47°00' W 038°30'.

Length 292 m; draft 13.3 m.

Type: Ship (hazmat cat D). MMSI: 367606000.

Wind from 230 at 25 knots

Barometer 1011.7 mb
Air temperature 14.0 ° C
Visibility: greater than 0.5 NM
Dewpoint 14.0 ° C
Water temperature 15.0 ° C

Date/timePositionNaut miles runAvg speedWind from/ knotsBaromVisibWave heightAir tempDewpointWater temp
2018-Apr-21 18:00N 47°00' W 038°30'11819.6 230 / 251011.7 0.5 14.014.015.0
2018-Apr-21 12:00N 47°42' W 035°48'11419.0 220 / 191015.8 14.012.210.6
2018-Apr-21 06:00N 48°18' W 033°06'22418.7 270 / 201012.9 2.2 11.0 9.011.0
2018-Apr-20 18:00N 49°12' W 027°36'12621.1 250 / 181014.010.8 12.010.112.0
2018-Apr-20 12:00N 49°30' W 024°24'11318.9 230 / 271014.2 2.2 14.012.212.0
2018-Apr-20 06:00N 49°42' W 021°30'23719.7 190 / 181021.310.8 13.0 9.111.0
2018-Apr-19 18:00N 49°54' W 015°24'21317.7 180 / 181020.910.8 14.010.212.0
2018-Apr-19 06:00N 49°48' W 009°54'21018.9 200 / 121020.610.8 13.0 6.811.0
2018-Apr-18 18:53N 49°52' W 004°28'917.4
2018-Apr-18 18:21N 49°53' W 004°14'617.5
2018-Apr-18 18:00N 49°54' W 004°04'111225.5
2018-Apr-18 18:00N 49°54' W 003°48'2 4.8 090 / 111021.410.8 14.010.210.0
2018-Apr-18 17:30N 49°55' W 003°51'918.8
2018-Apr-18 17:01N 49°57' W 003°36'1019.7
2018-Apr-18 16:30N 49°59' W 003°21'1020.5
2018-Apr-18 16:01N 50°00' W 003°06'1121.7
2018-Apr-18 15:30N 50°02' W 002°49'1122.6
2018-Apr-18 15:00N 50°05' W 002°32'1223.1
2018-Apr-18 14:30N 50°08' W 002°15'1223.6
2018-Apr-18 14:01N 50°12' W 001°57'1223.4
2018-Apr-18 13:31N 50°14' W 001°39'1122.4
2018-Apr-18 13:00N 50°16' W 001°22'1121.3
2018-Apr-18 12:30N 50°19' W 001°06'1020.1
2018-Apr-18 12:01N 50°22' W 000°51'1019.0
2018-Apr-18 11:28N 50°23' W 000°34'918.7
2018-Apr-18 11:00N 50°24' W 000°21'918.6
2018-Apr-18 10:30N 50°27' W 000°07'918.4
2018-Apr-18 10:00N 50°31' E 000°06'918.5
2018-Apr-18 09:31N 50°33' E 000°20'1019.3
2018-Apr-18 09:00N 50°36' E 000°35'1020.4
2018-Apr-18 08:30N 50°42' E 000°47'1121.9
2018-Apr-18 08:00N 50°49' E 001°00'1322.9
2018-Apr-18 07:27N 50°58' E 001°15'1022.9
2018-Apr-18 07:01N 51°04' E 001°28'191127.0
2018-Apr-18 07:00N 51°18' E 001°48'816.4 200 / 61029.710.8 13.0 9.110.0
2018-Apr-18 06:31N 51°11' E 001°42'1020.7
2018-Apr-18 06:01N 51°19' E 001°52'1019.0
2018-Apr-18 05:31N 51°27' E 001°60'918.5
2018-Apr-18 05:00N 51°35' E 002°09'918.2
2018-Apr-18 04:29N 51°42' E 002°19'917.8
2018-Apr-18 04:00N 51°49' E 002°28'917.5
2018-Apr-18 03:30N 51°56' E 002°36'3918.1
2018-Apr-18 01:21N 52°26' E 003°16'4820.1
2018-Apr-17 22:57N 53°02' E 004°08'920.3
2018-Apr-17 22:30N 53°09' E 004°19'1019.9
2018-Apr-17 22:00N 53°17' E 004°28'1019.7
2018-Apr-17 21:31N 53°26' E 004°35'918.2
2018-Apr-17 21:00N 53°31' E 004°48'918.5
2018-Apr-17 20:30N 53°35' E 005°02'917.9
2018-Apr-17 20:00N 53°38' E 005°17'918.1
2018-Apr-17 19:29N 53°40' E 005°31'3221.4
2018-Apr-17 18:00N 53°48' E 006°24'5616.8 1025.310.8 13.013.0 6.0
2018-Apr-17 14:39N 53°51' E 007°59'317.7
2018-Apr-17 14:30N 53°50' E 008°03'917.4
2018-Apr-17 14:00N 53°44' E 008°14'815.8
2018-Apr-17 13:31N 53°39' E 008°24'611.9
2018-Apr-17 13:00N 53°35' E 008°31'1 1.4
2018-Apr-17 12:30N 53°35' E 008°32'0 0.0
2018-Apr-17 11:58N 53°35' E 008°32'0 0.0
2018-Apr-17 11:25N 53°35' E 008°32'0 0.0
2018-Apr-17 10:58N 53°35' E 008°32'0 0.0
2018-Apr-17 10:28N 53°35' E 008°32'0 0.0
2018-Apr-17 09:58N 53°35' E 008°32'0 0.0
2018-Apr-17 09:28N 53°35' E 008°32'0 0.0
2018-Apr-17 08:58N 53°35' E 008°32'0 0.0
2018-Apr-17 08:28N 53°35' E 008°32'0 0.0
2018-Apr-17 07:58N 53°35' E 008°32'0 0.0
2018-Apr-17 07:28N 53°35' E 008°32'0 0.0
2018-Apr-17 06:58N 53°35' E 008°32'0 0.0
2018-Apr-17 06:28N 53°35' E 008°32'0 0.0
2018-Apr-17 05:58N 53°35' E 008°32'0 0.0
2018-Apr-17 05:28N 53°35' E 008°32'0 0.0
2018-Apr-17 04:58N 53°35' E 008°32'0 0.1
2018-Apr-17 04:28N 53°35' E 008°32'0 0.1
2018-Apr-17 03:58N 53°35' E 008°32'0 0.1
2018-Apr-17 03:28N 53°35' E 008°32'0 0.0
2018-Apr-17 02:58N 53°35' E 008°32'0 0.0
2018-Apr-17 02:28N 53°35' E 008°32'0 0.0
2018-Apr-17 01:58N 53°35' E 008°32'0 0.0
2018-Apr-17 01:28N 53°35' E 008°32'0 0.0
2018-Apr-17 00:58N 53°35' E 008°32'0 0.0
2018-Apr-17 00:28N 53°35' E 008°32'0 0.0
2018-Apr-16 23:58N 53°35' E 008°32'0 0.0
2018-Apr-16 23:28N 53°35' E 008°32'0 0.0
2018-Apr-16 22:58N 53°35' E 008°32'0 0.0
2018-Apr-16 22:28N 53°35' E 008°32'0 0.0
2018-Apr-16 21:58N 53°35' E 008°32'0 0.0
2018-Apr-16 21:28N 53°35' E 008°32'0 0.0
2018-Apr-16 20:58N 53°35' E 008°32'0 0.0
2018-Apr-16 20:28N 53°35' E 008°32'0 0.0
2018-Apr-16 19:58N 53°35' E 008°32'0 0.0
2018-Apr-16 19:28N 53°35' E 008°32'0 0.0
2018-Apr-16 18:58N 53°35' E 008°32'0 0.0
2018-Apr-16 18:28N 53°35' E 008°32'0 0.1
2018-Apr-16 17:58N 53°35' E 008°32'0 0.1
2018-Apr-16 17:28N 53°35' E 008°32'0 0.0
2018-Apr-16 16:58N 53°35' E 008°32'0 0.0
2018-Apr-16 16:28N 53°35' E 008°32'0 0.0
2018-Apr-16 15:58N 53°35' E 008°32'0 0.0
2018-Apr-16 15:28N 53°35' E 008°32'0 0.0
2018-Apr-16 14:58N 53°35' E 008°32'0 0.1
2018-Apr-16 14:28N 53°35' E 008°32'0 0.0
2018-Apr-16 13:58N 53°35' E 008°32'0 0.0
2018-Apr-16 13:28N 53°35' E 008°32'0 0.0
2018-Apr-16 12:58N 53°35' E 008°32'0 0.0
2018-Apr-16 12:28N 53°35' E 008°32'0 0.0
2018-Apr-16 11:58N 53°35' E 008°32'0 0.0
2018-Apr-16 11:30N 53°35' E 008°32'2 3.2
2018-Apr-16 11:00N 53°36' E 008°31'712.9
2018-Apr-16 10:30N 53°40' E 008°22'816.8
2018-Apr-16 10:00N 53°46' E 008°11'816.3
2018-Apr-16 09:30N 53°51' E 008°01'14 9.3
2018-Apr-16 08:02N 53°54' E 007°38'110.4
2018-Apr-16 07:57N 53°54' E 007°37'511.1
2018-Apr-16 07:30N 53°54' E 007°28'8016.4
2018-Apr-16 02:36N 53°33' E 005°17'116.5
2018-Apr-16 02:30N 53°33' E 005°15'816.4
2018-Apr-16 02:00N 53°30' E 005°02'816.1
2018-Apr-16 01:30N 53°26' E 004°50'816.1
2018-Apr-16 01:00N 53°21' E 004°39'1416.6
2018-Apr-16 00:08N 53°08' E 004°30'216.6
2018-Apr-16 00:00N 53°06' E 004°28'816.7
2018-Apr-15 23:31N 52°59' E 004°21'816.5
2018-Apr-15 23:01N 52°51' E 004°16'916.4
2018-Apr-15 22:28N 52°44' E 004°07'816.3
2018-Apr-15 21:57N 52°37' E 003°60'716.0
2018-Apr-15 21:30N 52°30' E 003°55'816.2
2018-Apr-15 21:00N 52°22' E 003°53'816.0
2018-Apr-15 20:30N 52°14' E 003°53'816.2
2018-Apr-15 20:00N 52°06' E 003°54'511.0
2018-Apr-15 19:30N 52°01' E 003°57'510.7
2018-Apr-15 19:00N 51°58' E 004°04'3 5.0
2018-Apr-15 18:30N 51°57' E 003°60'0 0.6
2018-Apr-15 17:57N 51°57' E 004°00'0 0.0
2018-Apr-15 17:30N 51°57' E 004°00'0 0.0
2018-Apr-15 17:00N 51°57' E 004°00'0 0.0
2018-Apr-15 16:30N 51°57' E 004°00'0 0.0
2018-Apr-15 16:00N 51°57' E 004°00'0 0.0
2018-Apr-15 15:30N 51°57' E 004°00'0 0.0
2018-Apr-15 15:00N 51°57' E 004°00'0 0.0
2018-Apr-15 14:30N 51°57' E 004°00'0 0.0
2018-Apr-15 14:00N 51°57' E 004°00'0 0.0
2018-Apr-15 13:30N 51°57' E 004°00'0 0.0
2018-Apr-15 13:00N 51°57' E 004°00'0 0.0
2018-Apr-15 12:30N 51°57' E 004°00'0 0.0
2018-Apr-15 12:00N 51°57' E 004°00'0 0.0
2018-Apr-15 11:30N 51°57' E 004°00'0 0.0
2018-Apr-15 11:00N 51°57' E 004°00'0 0.0
2018-Apr-15 10:30N 51°57' E 004°00'0 0.0
2018-Apr-15 10:00N 51°57' E 004°00'0 0.1
2018-Apr-15 09:30N 51°57' E 004°00'0 0.0
2018-Apr-15 09:00N 51°57' E 004°00'0 0.0
2018-Apr-15 08:27N 51°57' E 004°00'0 0.0
2018-Apr-15 08:00N 51°57' E 004°00'0 0.0
2018-Apr-15 07:30N 51°57' E 004°00'0 0.0
2018-Apr-15 07:00N 51°57' E 004°00'0 0.1
2018-Apr-15 06:30N 51°57' E 004°00'0 0.0
2018-Apr-15 06:00N 51°57' E 004°00'0 0.0
2018-Apr-15 05:30N 51°57' E 004°00'0 0.0
2018-Apr-15 05:00N 51°57' E 004°00'0 0.0
2018-Apr-15 04:30N 51°57' E 004°00'0 0.0
2018-Apr-15 04:00N 51°57' E 004°00'0 0.0
2018-Apr-15 03:30N 51°57' E 004°00'0 0.0
2018-Apr-15 03:00N 51°57' E 004°00'0 0.0
2018-Apr-15 02:30N 51°57' E 004°00'0 0.0
2018-Apr-15 02:00N 51°57' E 004°00'0 0.0
2018-Apr-15 01:30N 51°57' E 004°00'0 0.7
2018-Apr-15 01:00N 51°58' E 004°00'1 2.0
2018-Apr-15 00:30N 51°59' E 004°00'3 5.3
2018-Apr-15 00:00N 51°58' E 004°04'2 4.9
2018-Apr-14 23:30N 51°60' E 004°02'714.8
2018-Apr-14 23:00N 51°59' E 003°50'611.0
2018-Apr-14 22:30N 51°58' E 003°41'5 9.2
2018-Apr-14 22:00N 51°55' E 003°36'0 0.1
2018-Apr-14 21:24N 51°55' E 003°36'0 0.0
2018-Apr-14 21:00N 51°55' E 003°36'0 0.0
2018-Apr-14 20:30N 51°55' E 003°36'0 0.0
2018-Apr-14 20:00N 51°55' E 003°36'0 0.0
2018-Apr-14 19:30N 51°55' E 003°36'0 0.0
2018-Apr-14 19:00N 51°55' E 003°36'0 0.0
2018-Apr-14 18:24N 51°55' E 003°36'0 0.0
2018-Apr-14 17:57N 51°55' E 003°36'0 0.0
2018-Apr-14 17:30N 51°55' E 003°36'0 0.4
2018-Apr-14 17:00N 51°55' E 003°36'0 0.2
2018-Apr-14 16:30N 51°55' E 003°36'0 0.0
2018-Apr-14 15:36N 51°55' E 003°36'0 0.0
2018-Apr-14 15:24N 51°55' E 003°36'0 0.0
2018-Apr-14 14:57N 51°55' E 003°36'0 0.0
2018-Apr-14 14:30N 51°55' E 003°36'0 0.0
2018-Apr-14 12:57N 51°55' E 003°36'0 0.0
2018-Apr-14 12:30N 51°55' E 003°36'0 0.0
2018-Apr-14 11:57N 51°55' E 003°36'0 0.1
2018-Apr-14 10:33N 51°55' E 003°36'0 0.2
2018-Apr-14 10:15N 51°55' E 003°36'0 0.1
2018-Apr-14 10:00N 51°55' E 003°36'0 0.1
2018-Apr-14 09:27N 51°55' E 003°36'0 0.0
2018-Apr-14 09:00N 51°55' E 003°36'0 0.0
2018-Apr-14 08:30N 51°55' E 003°36'0 0.0
2018-Apr-14 07:57N 51°55' E 003°36'0 0.0
2018-Apr-14 07:30N 51°55' E 003°36'0 0.0
2018-Apr-14 06:51N 51°55' E 003°36'0 0.0
2018-Apr-14 06:21N 51°55' E 003°36'0 0.1
2018-Apr-14 06:00N 51°55' E 003°36'0 0.2
2018-Apr-14 05:30N 51°55' E 003°36'0 0.3
2018-Apr-14 05:00N 51°55' E 003°36'0 0.1
2018-Apr-14 04:27N 51°55' E 003°36'0 0.0
2018-Apr-14 04:00N 51°55' E 003°36'0 0.1
2018-Apr-14 03:30N 51°55' E 003°36'2 3.2
2018-Apr-14 03:00N 51°56' E 003°34'1014.7
2018-Apr-14 02:22N 51°52' E 003°20'717.9
2018-Apr-14 01:59N 51°46' E 003°16'816.2
2018-Apr-14 01:28N 51°38' E 003°11'816.9
2018-Apr-14 01:00N 51°31' E 003°06'713.5
2018-Apr-14 00:30N 51°25' E 003°01'715.0
2018-Apr-14 00:00N 51°25' E 003°13'714.7
2018-Apr-13 23:30N 51°25' E 003°25'612.8
2018-Apr-13 23:00N 51°26' E 003°35'5 9.5
2018-Apr-13 22:30N 51°25' E 003°42'712.9
2018-Apr-13 22:00N 51°21' E 003°50'713.2
2018-Apr-13 21:30N 51°25' E 003°58'5 9.3
2018-Apr-13 21:00N 51°22' E 004°04'611.4
2018-Apr-13 20:30N 51°23' E 004°13'5 9.8
2018-Apr-13 20:00N 51°18' E 004°16'1 2.4
2018-Apr-13 19:30N 51°17' E 004°15'0 0.0
2018-Apr-13 19:00N 51°17' E 004°15'0 0.0
2018-Apr-13 18:30N 51°17' E 004°15'0 0.0
2018-Apr-13 17:54N 51°17' E 004°15'0 0.0
2018-Apr-13 17:30N 51°17' E 004°15'0 0.0
2018-Apr-13 17:00N 51°17' E 004°15'0 0.0
2018-Apr-13 16:30N 51°17' E 004°15'0 0.0
2018-Apr-13 16:00N 51°17' E 004°15'0 0.0
2018-Apr-13 15:30N 51°17' E 004°15'0 0.1
2018-Apr-13 15:00N 51°17' E 004°15'0 0.0
2018-Apr-13 14:30N 51°17' E 004°15'0 0.0
2018-Apr-13 14:00N 51°17' E 004°15'0 0.0
2018-Apr-13 13:30N 51°17' E 004°15'0 0.0
2018-Apr-13 13:00N 51°17' E 004°15'0 0.0
2018-Apr-13 12:30N 51°17' E 004°15'0 0.0
2018-Apr-13 11:57N 51°17' E 004°15'0 0.0
2018-Apr-13 11:30N 51°17' E 004°15'0 0.0
2018-Apr-13 11:00N 51°17' E 004°15'0 0.0
2018-Apr-13 10:30N 51°17' E 004°15'0 0.0
2018-Apr-13 10:00N 51°17' E 004°15'0 0.0
2018-Apr-13 09:30N 51°17' E 004°15'0 0.0
2018-Apr-13 09:00N 51°17' E 004°15'0 0.0
2018-Apr-13 08:30N 51°17' E 004°15'0 0.0
2018-Apr-13 08:00N 51°17' E 004°15'0 0.0
2018-Apr-13 07:30N 51°17' E 004°15'0 0.0
2018-Apr-13 07:00N 51°17' E 004°15'0 0.0
2018-Apr-13 06:30N 51°17' E 004°15'0 0.0
2018-Apr-13 06:00N 51°17' E 004°15'0 0.0
2018-Apr-13 05:30N 51°17' E 004°15'0 0.0
2018-Apr-13 05:00N 51°17' E 004°15'0 0.0
2018-Apr-13 04:30N 51°17' E 004°15'0 0.0
2018-Apr-13 04:00N 51°17' E 004°15'0 0.0
2018-Apr-13 03:30N 51°17' E 004°15'0 0.3
2018-Apr-13 03:00N 51°17' E 004°15'1 2.5
2018-Apr-13 02:30N 51°18' E 004°16'3 5.4
2018-Apr-13 02:00N 51°21' E 004°15'4 8.3
2018-Apr-13 01:30N 51°23' E 004°10'510.5
2018-Apr-13 01:00N 51°25' E 004°02'511.0
2018-Apr-13 00:30N 51°22' E 003°55'714.0
2018-Apr-13 00:00N 51°23' E 003°44'611.3
2018-Apr-12 23:30N 51°26' E 003°36'510.2
2018-Apr-12 23:00N 51°25' E 003°28'815.7
2018-Apr-12 22:30N 51°25' E 003°15'816.6
2018-Apr-12 22:00N 51°25' E 003°02'816.4
2018-Apr-12 21:30N 51°25' E 002°49'611.3
2018-Apr-12 20:59N 51°23' E 002°40'1 1.6
2018-Apr-12 20:29N 51°23' E 002°39'2 4.6
2018-Apr-12 19:59N 51°22' E 002°36'3 6.7
2018-Apr-12 19:29N 51°22' E 002°30'3 6.0
2018-Apr-12 18:59N 51°21' E 002°26'3 6.6
2018-Apr-12 18:30N 51°19' E 002°21'816.0
2018-Apr-12 18:00N 51°14' E 002°11'816.6
2018-Apr-12 17:31N 51°10' E 001°60'816.4
2018-Apr-12 17:01N 51°07' E 001°48'815.8
2018-Apr-12 16:31N 51°01' E 001°39'815.7
2018-Apr-12 16:00N 50°56' E 001°30'816.0
2018-Apr-12 15:30N 50°48' E 001°26'816.7
2018-Apr-12 15:00N 50°40' E 001°21'917.0
2018-Apr-12 14:29N 50°35' E 001°10'1017.2
2018-Apr-12 13:55N 50°28' E 000°59'717.2
2018-Apr-12 13:29N 50°26' E 000°48'1017.4
2018-Apr-12 12:54N 50°23' E 000°33'1617.4
2018-Apr-12 11:58N 50°18' E 000°08'917.5
2018-Apr-12 11:29N 50°16' W 000°05'817.5
2018-Apr-12 11:00N 50°14' W 000°17'917.4
2018-Apr-12 10:30N 50°12' W 000°31'917.4
2018-Apr-12 10:00N 50°10' W 000°44'917.7
2018-Apr-12 09:30N 50°08' W 000°57'918.1
2018-Apr-12 09:01N 50°06' W 001°11'918.6
2018-Apr-12 08:30N 50°04' W 001°25'1019.6
2018-Apr-12 08:00N 50°02' W 001°40'1121.1
2018-Apr-12 07:30N 49°60' W 001°56'1221.3
2018-Apr-12 06:58N 49°57' W 002°14'1021.1
2018-Apr-12 06:30N 49°55' W 002°28'1120.9
2018-Apr-12 06:00N 49°52' W 002°44'3420.5
2018-Apr-12 04:22N 49°43' W 003°34'  
Track history (hours):
 
Tides and Currents Weather Stations Pressure Air Temp Water Temp Dewpoint Dewpoint Depression Visibility Wind Speed Wind Dir Waves Ship Positions

Maersk Iowa

Owner: Maersk Line, Limited, Norfolk, VA. More information available from US FCC via Universal Licensing System and Coast Guard Vessel Documentation Center.

Last reported at 2018-Apr-21 18:00 UTC. Time now 2018-Apr-21 21:01 UTC.
Position N 47°00' W 038°30'.

Length 292 m; draft 13.3 m.

Type: Ship (hazmat cat D). MMSI: 367606000.

Wind from 230 at 25 knots

Barometer 1011.7 mb
Air temperature 14.0 ° C
Visibility: greater than 0.5 NM
Dewpoint 14.0 ° C
Water temperature 15.0 ° C

Date/timePositionNaut miles runAvg speedWind from/ knotsBaromVisibWave heightAir tempDewpointWater temp
2018-Apr-21 18:00N 47°00' W 038°30'11819.6 230 / 251011.7 0.5 14.014.015.0
2018-Apr-21 12:00N 47°42' W 035°48'11419.0 220 / 191015.8 14.012.210.6
2018-Apr-21 06:00N 48°18' W 033°06'22418.7 270 / 201012.9 2.2 11.0 9.011.0
2018-Apr-20 18:00N 49°12' W 027°36'12621.1 250 / 181014.010.8 12.010.112.0
2018-Apr-20 12:00N 49°30' W 024°24'11318.9 230 / 271014.2 2.2 14.012.212.0
2018-Apr-20 06:00N 49°42' W 021°30'23719.7 190 / 181021.310.8 13.0 9.111.0
2018-Apr-19 18:00N 49°54' W 015°24'21317.7 180 / 181020.910.8 14.010.212.0
2018-Apr-19 06:00N 49°48' W 009°54'21018.9 200 / 121020.610.8 13.0 6.811.0
2018-Apr-18 18:53N 49°52' W 004°28'917.4
2018-Apr-18 18:21N 49°53' W 004°14'617.5
2018-Apr-18 18:00N 49°54' W 004°04'111225.5
2018-Apr-18 18:00N 49°54' W 003°48'2 4.8 090 / 111021.410.8 14.010.210.0
2018-Apr-18 17:30N 49°55' W 003°51'918.8
2018-Apr-18 17:01N 49°57' W 003°36'1019.7
2018-Apr-18 16:30N 49°59' W 003°21'1020.5
2018-Apr-18 16:01N 50°00' W 003°06'1121.7
2018-Apr-18 15:30N 50°02' W 002°49'1122.6
2018-Apr-18 15:00N 50°05' W 002°32'1223.1
2018-Apr-18 14:30N 50°08' W 002°15'1223.6
2018-Apr-18 14:01N 50°12' W 001°57'1223.4
2018-Apr-18 13:31N 50°14' W 001°39'1122.4
2018-Apr-18 13:00N 50°16' W 001°22'1121.3
2018-Apr-18 12:30N 50°19' W 001°06'1020.1
2018-Apr-18 12:01N 50°22' W 000°51'1019.0
2018-Apr-18 11:28N 50°23' W 000°34'918.7
2018-Apr-18 11:00N 50°24' W 000°21'918.6
2018-Apr-18 10:30N 50°27' W 000°07'918.4
2018-Apr-18 10:00N 50°31' E 000°06'918.5
2018-Apr-18 09:31N 50°33' E 000°20'1019.3
2018-Apr-18 09:00N 50°36' E 000°35'1020.4
2018-Apr-18 08:30N 50°42' E 000°47'1121.9
2018-Apr-18 08:00N 50°49' E 001°00'1322.9
2018-Apr-18 07:27N 50°58' E 001°15'1022.9
2018-Apr-18 07:01N 51°04' E 001°28'191127.0
2018-Apr-18 07:00N 51°18' E 001°48'816.4 200 / 61029.710.8 13.0 9.110.0
2018-Apr-18 06:31N 51°11' E 001°42'1020.7
2018-Apr-18 06:01N 51°19' E 001°52'1019.0
2018-Apr-18 05:31N 51°27' E 001°60'918.5
2018-Apr-18 05:00N 51°35' E 002°09'918.2
2018-Apr-18 04:29N 51°42' E 002°19'917.8
2018-Apr-18 04:00N 51°49' E 002°28'917.5
2018-Apr-18 03:30N 51°56' E 002°36'3918.1
2018-Apr-18 01:21N 52°26' E 003°16'4820.1
2018-Apr-17 22:57N 53°02' E 004°08'920.3
2018-Apr-17 22:30N 53°09' E 004°19'1019.9
2018-Apr-17 22:00N 53°17' E 004°28'1019.7
2018-Apr-17 21:31N 53°26' E 004°35'918.2
2018-Apr-17 21:00N 53°31' E 004°48'918.5
2018-Apr-17 20:30N 53°35' E 005°02'917.9
2018-Apr-17 20:00N 53°38' E 005°17'918.1
2018-Apr-17 19:29N 53°40' E 005°31'3221.4
2018-Apr-17 18:00N 53°48' E 006°24'5616.8 1025.310.8 13.013.0 6.0
2018-Apr-17 14:39N 53°51' E 007°59'317.7
2018-Apr-17 14:30N 53°50' E 008°03'917.4
2018-Apr-17 14:00N 53°44' E 008°14'815.8
2018-Apr-17 13:31N 53°39' E 008°24'611.9
2018-Apr-17 13:00N 53°35' E 008°31'1 1.4
2018-Apr-17 12:30N 53°35' E 008°32'0 0.0
2018-Apr-17 11:58N 53°35' E 008°32'0 0.0
2018-Apr-17 11:25N 53°35' E 008°32'0 0.0
2018-Apr-17 10:58N 53°35' E 008°32'0 0.0
2018-Apr-17 10:28N 53°35' E 008°32'0 0.0
2018-Apr-17 09:58N 53°35' E 008°32'0 0.0
2018-Apr-17 09:28N 53°35' E 008°32'0 0.0
2018-Apr-17 08:58N 53°35' E 008°32'0 0.0
2018-Apr-17 08:28N 53°35' E 008°32'0 0.0
2018-Apr-17 07:58N 53°35' E 008°32'0 0.0
2018-Apr-17 07:28N 53°35' E 008°32'0 0.0
2018-Apr-17 06:58N 53°35' E 008°32'0 0.0
2018-Apr-17 06:28N 53°35' E 008°32'0 0.0
2018-Apr-17 05:58N 53°35' E 008°32'0 0.0
2018-Apr-17 05:28N 53°35' E 008°32'0 0.0
2018-Apr-17 04:58N 53°35' E 008°32'0 0.1
2018-Apr-17 04:28N 53°35' E 008°32'0 0.1
2018-Apr-17 03:58N 53°35' E 008°32'0 0.1
2018-Apr-17 03:28N 53°35' E 008°32'0 0.0
2018-Apr-17 02:58N 53°35' E 008°32'0 0.0
2018-Apr-17 02:28N 53°35' E 008°32'0 0.0
2018-Apr-17 01:58N 53°35' E 008°32'0 0.0
2018-Apr-17 01:28N 53°35' E 008°32'0 0.0
2018-Apr-17 00:58N 53°35' E 008°32'0 0.0
2018-Apr-17 00:28N 53°35' E 008°32'0 0.0
2018-Apr-16 23:58N 53°35' E 008°32'0 0.0
2018-Apr-16 23:28N 53°35' E 008°32'0 0.0
2018-Apr-16 22:58N 53°35' E 008°32'0 0.0
2018-Apr-16 22:28N 53°35' E 008°32'0 0.0
2018-Apr-16 21:58N 53°35' E 008°32'0 0.0
2018-Apr-16 21:28N 53°35' E 008°32'0 0.0
2018-Apr-16 20:58N 53°35' E 008°32'0 0.0
2018-Apr-16 20:28N 53°35' E 008°32'0 0.0
2018-Apr-16 19:58N 53°35' E 008°32'0 0.0
2018-Apr-16 19:28N 53°35' E 008°32'0 0.0
2018-Apr-16 18:58N 53°35' E 008°32'0 0.0
2018-Apr-16 18:28N 53°35' E 008°32'0 0.1
2018-Apr-16 17:58N 53°35' E 008°32'0 0.1
2018-Apr-16 17:28N 53°35' E 008°32'0 0.0
2018-Apr-16 16:58N 53°35' E 008°32'0 0.0
2018-Apr-16 16:28N 53°35' E 008°32'0 0.0
2018-Apr-16 15:58N 53°35' E 008°32'0 0.0
2018-Apr-16 15:28N 53°35' E 008°32'0 0.0
2018-Apr-16 14:58N 53°35' E 008°32'0 0.1
2018-Apr-16 14:28N 53°35' E 008°32'0 0.0
2018-Apr-16 13:58N 53°35' E 008°32'0 0.0
2018-Apr-16 13:28N 53°35' E 008°32'0 0.0
2018-Apr-16 12:58N 53°35' E 008°32'0 0.0
2018-Apr-16 12:28N 53°35' E 008°32'0 0.0
2018-Apr-16 11:58N 53°35' E 008°32'0 0.0
2018-Apr-16 11:30N 53°35' E 008°32'2 3.2
2018-Apr-16 11:00N 53°36' E 008°31'712.9
2018-Apr-16 10:30N 53°40' E 008°22'816.8
2018-Apr-16 10:00N 53°46' E 008°11'816.3
2018-Apr-16 09:30N 53°51' E 008°01'14 9.3
2018-Apr-16 08:02N 53°54' E 007°38'110.4
2018-Apr-16 07:57N 53°54' E 007°37'511.1
2018-Apr-16 07:30N 53°54' E 007°28'8016.4
2018-Apr-16 02:36N 53°33' E 005°17'116.5
2018-Apr-16 02:30N 53°33' E 005°15'816.4
2018-Apr-16 02:00N 53°30' E 005°02'816.1
2018-Apr-16 01:30N 53°26' E 004°50'816.1
2018-Apr-16 01:00N 53°21' E 004°39'1416.6
2018-Apr-16 00:08N 53°08' E 004°30'216.6
2018-Apr-16 00:00N 53°06' E 004°28'816.7
2018-Apr-15 23:31N 52°59' E 004°21'816.5
2018-Apr-15 23:01N 52°51' E 004°16'916.4
2018-Apr-15 22:28N 52°44' E 004°07'816.3
2018-Apr-15 21:57N 52°37' E 003°60'716.0
2018-Apr-15 21:30N 52°30' E 003°55'816.2
2018-Apr-15 21:00N 52°22' E 003°53'816.0
2018-Apr-15 20:30N 52°14' E 003°53'816.2
2018-Apr-15 20:00N 52°06' E 003°54'511.0
2018-Apr-15 19:30N 52°01' E 003°57'510.7
2018-Apr-15 19:00N 51°58' E 004°04'3 5.0
2018-Apr-15 18:30N 51°57' E 003°60'0 0.6
2018-Apr-15 17:57N 51°57' E 004°00'0 0.0
2018-Apr-15 17:30N 51°57' E 004°00'0 0.0
2018-Apr-15 17:00N 51°57' E 004°00'0 0.0
2018-Apr-15 16:30N 51°57' E 004°00'0 0.0
2018-Apr-15 16:00N 51°57' E 004°00'0 0.0
2018-Apr-15 15:30N 51°57' E 004°00'0 0.0
2018-Apr-15 15:00N 51°57' E 004°00'0 0.0
2018-Apr-15 14:30N 51°57' E 004°00'0 0.0
2018-Apr-15 14:00N 51°57' E 004°00'0 0.0
2018-Apr-15 13:30N 51°57' E 004°00'0 0.0
2018-Apr-15 13:00N 51°57' E 004°00'0 0.0
2018-Apr-15 12:30N 51°57' E 004°00'0 0.0
2018-Apr-15 12:00N 51°57' E 004°00'0 0.0
2018-Apr-15 11:30N 51°57' E 004°00'0 0.0
2018-Apr-15 11:00N 51°57' E 004°00'0 0.0
2018-Apr-15 10:30N 51°57' E 004°00'0 0.0
2018-Apr-15 10:00N 51°57' E 004°00'0 0.1
2018-Apr-15 09:30N 51°57' E 004°00'0 0.0
2018-Apr-15 09:00N 51°57' E 004°00'0 0.0
2018-Apr-15 08:27N 51°57' E 004°00'0 0.0
2018-Apr-15 08:00N 51°57' E 004°00'0 0.0
2018-Apr-15 07:30N 51°57' E 004°00'0 0.0
2018-Apr-15 07:00N 51°57' E 004°00'0 0.1
2018-Apr-15 06:30N 51°57' E 004°00'0 0.0
2018-Apr-15 06:00N 51°57' E 004°00'0 0.0
2018-Apr-15 05:30N 51°57' E 004°00'0 0.0
2018-Apr-15 05:00N 51°57' E 004°00'0 0.0
2018-Apr-15 04:30N 51°57' E 004°00'0 0.0
2018-Apr-15 04:00N 51°57' E 004°00'0 0.0
2018-Apr-15 03:30N 51°57' E 004°00'0 0.0
2018-Apr-15 03:00N 51°57' E 004°00'0 0.0
2018-Apr-15 02:30N 51°57' E 004°00'0 0.0
2018-Apr-15 02:00N 51°57' E 004°00'0 0.0
2018-Apr-15 01:30N 51°57' E 004°00'0 0.7
2018-Apr-15 01:00N 51°58' E 004°00'1 2.0
2018-Apr-15 00:30N 51°59' E 004°00'3 5.3
2018-Apr-15 00:00N 51°58' E 004°04'2 4.9
2018-Apr-14 23:30N 51°60' E 004°02'714.8
2018-Apr-14 23:00N 51°59' E 003°50'611.0
2018-Apr-14 22:30N 51°58' E 003°41'5 9.2
2018-Apr-14 22:00N 51°55' E 003°36'0 0.1
2018-Apr-14 21:24N 51°55' E 003°36'0 0.0
2018-Apr-14 21:00N 51°55' E 003°36'0 0.0
2018-Apr-14 20:30N 51°55' E 003°36'0 0.0
2018-Apr-14 20:00N 51°55' E 003°36'0 0.0
2018-Apr-14 19:30N 51°55' E 003°36'0 0.0
2018-Apr-14 19:00N 51°55' E 003°36'0 0.0
2018-Apr-14 18:24N 51°55' E 003°36'0 0.0
2018-Apr-14 17:57N 51°55' E 003°36'0 0.0
2018-Apr-14 17:30N 51°55' E 003°36'0 0.4
2018-Apr-14 17:00N 51°55' E 003°36'0 0.2
2018-Apr-14 16:30N 51°55' E 003°36'0 0.0
2018-Apr-14 15:36N 51°55' E 003°36'0 0.0
2018-Apr-14 15:24N 51°55' E 003°36'0 0.0
2018-Apr-14 14:57N 51°55' E 003°36'0 0.0
2018-Apr-14 14:30N 51°55' E 003°36'0 0.0
2018-Apr-14 12:57N 51°55' E 003°36'0 0.0
2018-Apr-14 12:30N 51°55' E 003°36'0 0.0
2018-Apr-14 11:57N 51°55' E 003°36'0 0.1
2018-Apr-14 10:33N 51°55' E 003°36'0 0.2
2018-Apr-14 10:15N 51°55' E 003°36'0 0.1
2018-Apr-14 10:00N 51°55' E 003°36'0 0.1
2018-Apr-14 09:27N 51°55' E 003°36'0 0.0
2018-Apr-14 09:00N 51°55' E 003°36'0 0.0
2018-Apr-14 08:30N 51°55' E 003°36'0 0.0
2018-Apr-14 07:57N 51°55' E 003°36'0 0.0
2018-Apr-14 07:30N 51°55' E 003°36'0 0.0
2018-Apr-14 06:51N 51°55' E 003°36'0 0.0
2018-Apr-14 06:21N 51°55' E 003°36'0 0.1
2018-Apr-14 06:00N 51°55' E 003°36'0 0.2
2018-Apr-14 05:30N 51°55' E 003°36'0 0.3
2018-Apr-14 05:00N 51°55' E 003°36'0 0.1
2018-Apr-14 04:27N 51°55' E 003°36'0 0.0
2018-Apr-14 04:00N 51°55' E 003°36'0 0.1
2018-Apr-14 03:30N 51°55' E 003°36'2 3.2
2018-Apr-14 03:00N 51°56' E 003°34'1014.7
2018-Apr-14 02:22N 51°52' E 003°20'717.9
2018-Apr-14 01:59N 51°46' E 003°16'816.2
2018-Apr-14 01:28N 51°38' E 003°11'816.9
2018-Apr-14 01:00N 51°31' E 003°06'713.5
2018-Apr-14 00:30N 51°25' E 003°01'715.0
2018-Apr-14 00:00N 51°25' E 003°13'714.7
2018-Apr-13 23:30N 51°25' E 003°25'612.8
2018-Apr-13 23:00N 51°26' E 003°35'5 9.5
2018-Apr-13 22:30N 51°25' E 003°42'712.9
2018-Apr-13 22:00N 51°21' E 003°50'713.2
2018-Apr-13 21:30N 51°25' E 003°58'5 9.3
2018-Apr-13 21:00N 51°22' E 004°04'611.4
2018-Apr-13 20:30N 51°23' E 004°13'5 9.8
2018-Apr-13 20:00N 51°18' E 004°16'1 2.4
2018-Apr-13 19:30N 51°17' E 004°15'0 0.0
2018-Apr-13 19:00N 51°17' E 004°15'0 0.0
2018-Apr-13 18:30N 51°17' E 004°15'0 0.0
2018-Apr-13 17:54N 51°17' E 004°15'0 0.0
2018-Apr-13 17:30N 51°17' E 004°15'0 0.0
2018-Apr-13 17:00N 51°17' E 004°15'0 0.0
2018-Apr-13 16:30N 51°17' E 004°15'0 0.0
2018-Apr-13 16:00N 51°17' E 004°15'0 0.0
2018-Apr-13 15:30N 51°17' E 004°15'0 0.1
2018-Apr-13 15:00N 51°17' E 004°15'0 0.0
2018-Apr-13 14:30N 51°17' E 004°15'0 0.0
2018-Apr-13 14:00N 51°17' E 004°15'0 0.0
2018-Apr-13 13:30N 51°17' E 004°15'0 0.0
2018-Apr-13 13:00N 51°17' E 004°15'0 0.0
2018-Apr-13 12:30N 51°17' E 004°15'0 0.0
2018-Apr-13 11:57N 51°17' E 004°15'0 0.0
2018-Apr-13 11:30N 51°17' E 004°15'0 0.0
2018-Apr-13 11:00N 51°17' E 004°15'0 0.0
2018-Apr-13 10:30N 51°17' E 004°15'0 0.0
2018-Apr-13 10:00N 51°17' E 004°15'0 0.0
2018-Apr-13 09:30N 51°17' E 004°15'0 0.0
2018-Apr-13 09:00N 51°17' E 004°15'0 0.0
2018-Apr-13 08:30N 51°17' E 004°15'0 0.0
2018-Apr-13 08:00N 51°17' E 004°15'0 0.0
2018-Apr-13 07:30N 51°17' E 004°15'0 0.0
2018-Apr-13 07:00N 51°17' E 004°15'0 0.0
2018-Apr-13 06:30N 51°17' E 004°15'0 0.0
2018-Apr-13 06:00N 51°17' E 004°15'0 0.0
2018-Apr-13 05:30N 51°17' E 004°15'0 0.0
2018-Apr-13 05:00N 51°17' E 004°15'0 0.0
2018-Apr-13 04:30N 51°17' E 004°15'0 0.0
2018-Apr-13 04:00N 51°17' E 004°15'0 0.0
2018-Apr-13 03:30N 51°17' E 004°15'0 0.3
2018-Apr-13 03:00N 51°17' E 004°15'1 2.5
2018-Apr-13 02:30N 51°18' E 004°16'3 5.4
2018-Apr-13 02:00N 51°21' E 004°15'4 8.3
2018-Apr-13 01:30N 51°23' E 004°10'510.5
2018-Apr-13 01:00N 51°25' E 004°02'511.0
2018-Apr-13 00:30N 51°22' E 003°55'714.0
2018-Apr-13 00:00N 51°23' E 003°44'611.3
2018-Apr-12 23:30N 51°26' E 003°36'510.2
2018-Apr-12 23:00N 51°25' E 003°28'815.7
2018-Apr-12 22:30N 51°25' E 003°15'816.6
2018-Apr-12 22:00N 51°25' E 003°02'816.4
2018-Apr-12 21:30N 51°25' E 002°49'611.3
2018-Apr-12 20:59N 51°23' E 002°40'1 1.6
2018-Apr-12 20:29N 51°23' E 002°39'2 4.6
2018-Apr-12 19:59N 51°22' E 002°36'3 6.7
2018-Apr-12 19:29N 51°22' E 002°30'3 6.0
2018-Apr-12 18:59N 51°21' E 002°26'3 6.6
2018-Apr-12 18:30N 51°19' E 002°21'816.0
2018-Apr-12 18:00N 51°14' E 002°11'816.6
2018-Apr-12 17:31N 51°10' E 001°60'816.4
2018-Apr-12 17:01N 51°07' E 001°48'815.8
2018-Apr-12 16:31N 51°01' E 001°39'815.7
2018-Apr-12 16:00N 50°56' E 001°30'816.0
2018-Apr-12 15:30N 50°48' E 001°26'816.7
2018-Apr-12 15:00N 50°40' E 001°21'917.0
2018-Apr-12 14:29N 50°35' E 001°10'1017.2
2018-Apr-12 13:55N 50°28' E 000°59'717.2
2018-Apr-12 13:29N 50°26' E 000°48'1017.4
2018-Apr-12 12:54N 50°23' E 000°33'1617.4
2018-Apr-12 11:58N 50°18' E 000°08'917.5
2018-Apr-12 11:29N 50°16' W 000°05'817.5
2018-Apr-12 11:00N 50°14' W 000°17'917.4
2018-Apr-12 10:30N 50°12' W 000°31'917.4
2018-Apr-12 10:00N 50°10' W 000°44'917.7
2018-Apr-12 09:30N 50°08' W 000°57'918.1
2018-Apr-12 09:01N 50°06' W 001°11'918.6
2018-Apr-12 08:30N 50°04' W 001°25'1019.6
2018-Apr-12 08:00N 50°02' W 001°40'1121.1
2018-Apr-12 07:30N 49°60' W 001°56'1221.3
2018-Apr-12 06:58N 49°57' W 002°14'1021.1
2018-Apr-12 06:30N 49°55' W 002°28'1120.9
2018-Apr-12 06:00N 49°52' W 002°44'3420.5
2018-Apr-12 04:22N 49°43' W 003°34'  

Dump ship's entire track history